createdAt,value
2024-04-09T00:00:21.877Z,48.89
2024-04-09T00:03:10.018Z,49.30
2024-04-09T00:05:41.252Z,49.29
2024-04-09T00:08:12.046Z,49.29
2024-04-09T00:10:41.881Z,49.68
2024-04-09T00:13:11.016Z,49.50
2024-04-09T00:15:41.375Z,49.54
2024-04-09T00:18:12.967Z,49.63
2024-04-09T00:20:45.977Z,49.68
2024-04-09T00:23:17.563Z,49.71
2024-04-09T00:25:46.442Z,49.48
2024-04-09T00:28:14.538Z,49.99
2024-04-09T00:30:42.580Z,49.54
2024-04-09T00:33:10.665Z,49.40
2024-04-09T00:35:38.756Z,49.11
2024-04-09T00:38:08.073Z,49.57
2024-04-09T00:40:37.629Z,49.47
2024-04-09T00:43:05.571Z,49.28
2024-04-09T00:45:34.457Z,49.19
2024-04-09T00:48:03.049Z,49.43
2024-04-09T00:50:34.141Z,49.47
2024-04-09T00:53:02.812Z,49.17
2024-04-09T00:55:33.831Z,48.95
2024-04-09T00:58:04.500Z,49.01
2024-04-09T01:00:32.728Z,48.99
2024-04-09T01:03:01.917Z,48.73
2024-04-09T01:05:31.491Z,48.95
2024-04-09T01:07:59.504Z,48.87
2024-04-09T01:10:27.493Z,49.18
2024-04-09T01:12:55.598Z,48.91
2024-04-09T01:15:23.720Z,48.85
2024-04-09T01:17:52.333Z,48.85
2024-04-09T01:20:20.411Z,48.95
2024-04-09T01:22:48.375Z,49.21
2024-04-09T01:25:16.454Z,49.17
2024-04-09T01:27:44.386Z,49.38
2024-04-09T01:30:14.308Z,49.54
2024-04-09T01:32:42.854Z,49.88
2024-04-09T01:35:11.189Z,49.67
2024-04-09T01:37:39.305Z,49.79
2024-04-09T01:40:08.875Z,49.90
2024-04-09T01:42:36.980Z,50.14
2024-04-09T01:45:06.255Z,50.23
2024-04-09T01:47:35.086Z,50.63
2024-04-09T01:50:05.188Z,50.43
2024-04-09T01:52:33.334Z,51.11
2024-04-09T01:55:01.683Z,51.13
2024-04-09T01:57:35.369Z,51.71
2024-04-09T02:00:12.881Z,51.75
2024-04-09T02:02:43.647Z,51.16
2024-04-09T02:05:14.078Z,51.94
2024-04-09T02:07:42.477Z,52.08
2024-04-09T02:10:10.890Z,51.55
2024-04-09T02:12:42.510Z,51.36
2024-04-09T02:15:14.384Z,51.48
2024-04-09T02:17:42.605Z,51.84
2024-04-09T02:20:11.729Z,51.70
2024-04-09T02:22:39.846Z,52.02
2024-04-09T02:25:08.736Z,52.03
2024-04-09T02:27:36.974Z,52.06
2024-04-09T02:30:10.774Z,52.38
2024-04-09T02:32:39.014Z,52.13
2024-04-09T02:35:11.442Z,52.31
2024-04-09T02:37:40.528Z,52.46
2024-04-09T02:40:16.946Z,52.02
2024-04-09T02:42:46.526Z,52.99
2024-04-09T02:45:15.374Z,52.61
2024-04-09T02:47:43.584Z,52.89
2024-04-09T02:50:11.697Z,53.02
2024-04-09T02:52:39.823Z,53.02
2024-04-09T02:55:08.407Z,53.13
2024-04-09T02:57:36.532Z,53.40
2024-04-09T03:00:09.961Z,53.74
2024-04-09T03:02:38.257Z,53.27
2024-04-09T03:05:07.422Z,53.78
2024-04-09T03:07:35.932Z,53.65
2024-04-09T03:10:04.198Z,53.65
2024-04-09T03:12:35.863Z,54.08
2024-04-09T03:15:04.430Z,53.75
2024-04-09T03:17:32.588Z,53.97
2024-04-09T03:20:00.515Z,53.92
2024-04-09T03:22:28.530Z,53.93
2024-04-09T03:24:56.494Z,54.44
2024-04-09T03:27:24.631Z,54.67
2024-04-09T03:29:52.815Z,54.92
2024-04-09T03:32:22.013Z,54.81
2024-04-09T03:34:50.477Z,55.04
2024-04-09T03:37:18.562Z,54.92
2024-04-09T03:39:46.555Z,55.13
2024-04-09T03:42:14.618Z,54.93
2024-04-09T03:44:42.707Z,55.47
2024-04-09T03:47:10.835Z,55.24
2024-04-09T03:49:38.889Z,55.97
2024-04-09T03:52:07.272Z,55.68
2024-04-09T03:54:35.521Z,55.60
2024-04-09T03:57:06.752Z,56.23
2024-04-09T03:59:37.464Z,55.69
2024-04-09T04:02:05.556Z,55.97
2024-04-09T04:04:33.642Z,56.47
2024-04-09T04:07:01.800Z,56.58
2024-04-09T04:09:29.925Z,57.08
2024-04-09T04:11:57.990Z,57.20
2024-04-09T04:14:26.183Z,58.14
2024-04-09T04:16:54.650Z,58.09
2024-04-09T04:19:22.688Z,58.09
2024-04-09T04:21:50.706Z,58.03
2024-04-09T04:24:18.786Z,57.90
2024-04-09T04:26:46.750Z,57.77
2024-04-09T04:29:14.790Z,57.94
2024-04-09T04:31:43.212Z,58.16
2024-04-09T04:34:12.385Z,57.83
2024-04-09T04:36:40.559Z,58.36
2024-04-09T04:39:08.977Z,57.79
2024-04-09T04:41:36.982Z,57.55
2024-04-09T04:44:06.169Z,57.47
2024-04-09T04:46:34.144Z,57.22
2024-04-09T04:49:02.289Z,57.30
2024-04-09T04:51:30.609Z,57.52
2024-04-09T04:53:58.711Z,57.28
2024-04-09T04:56:26.720Z,57.68
2024-04-09T04:58:54.671Z,57.21
2024-04-09T05:01:23.327Z,56.69
2024-04-09T05:03:53.232Z,56.56
2024-04-09T05:06:21.441Z,56.49
2024-04-09T05:08:49.426Z,56.59
2024-04-09T05:11:18.279Z,56.26
2024-04-09T05:13:46.272Z,56.26
2024-04-09T05:16:14.256Z,56.13
2024-04-09T05:18:42.468Z,56.00
2024-04-09T05:21:10.666Z,56.39
2024-04-09T05:23:38.683Z,55.95
2024-04-09T05:26:08.604Z,55.81
2024-04-09T05:28:36.816Z,55.80
2024-04-09T05:31:04.924Z,55.33
2024-04-09T05:33:33.144Z,55.22
2024-04-09T05:36:01.512Z,55.02
2024-04-09T05:38:29.693Z,54.69
2024-04-09T05:41:01.360Z,54.70
2024-04-09T05:43:29.439Z,54.57
2024-04-09T05:45:57.671Z,54.28
2024-04-09T05:48:25.796Z,54.45
2024-04-09T05:50:54.150Z,54.11
2024-04-09T05:53:22.708Z,53.47
2024-04-09T05:55:57.792Z,53.15
2024-04-09T05:58:26.039Z,52.70
2024-04-09T06:00:54.848Z,52.61
2024-04-09T06:03:24.193Z,52.55
2024-04-09T06:05:52.668Z,51.68
2024-04-09T06:08:20.907Z,51.83
2024-04-09T06:10:49.946Z,52.01
2024-04-09T06:13:18.038Z,51.39
2024-04-09T06:15:46.492Z,51.31
2024-04-09T06:18:14.845Z,50.97
2024-04-09T06:20:42.968Z,51.06
2024-04-09T06:23:11.974Z,50.64
2024-04-09T06:25:40.605Z,49.87
2024-04-09T06:28:09.089Z,50.29
2024-04-09T06:30:37.709Z,50.15
2024-04-09T06:33:06.991Z,49.64
2024-04-09T06:35:35.280Z,49.20
2024-04-09T06:38:03.438Z,49.44
2024-04-09T06:40:33.096Z,49.52
2024-04-09T06:43:01.190Z,49.55
2024-04-09T06:45:29.867Z,49.24
2024-04-09T06:47:58.201Z,48.99
2024-04-09T06:50:26.364Z,48.78
2024-04-09T06:52:54.389Z,49.45
2024-04-09T06:55:22.720Z,49.14
2024-04-09T06:57:50.819Z,47.87
2024-04-09T07:00:19.110Z,47.75
2024-04-09T07:02:47.221Z,47.97
2024-04-09T07:05:15.256Z,47.86
2024-04-09T07:07:43.230Z,47.06
2024-04-09T07:10:12.345Z,47.34
2024-04-09T07:12:40.587Z,45.59
2024-04-09T07:15:08.609Z,44.80
2024-04-09T07:17:36.811Z,44.53
2024-04-09T07:20:05.427Z,44.00
2024-04-09T07:22:33.417Z,44.50
2024-04-09T07:25:01.361Z,44.42
2024-04-09T07:27:29.405Z,45.14
2024-04-09T07:29:57.491Z,44.55
2024-04-09T07:32:25.593Z,43.94
2024-04-09T07:34:53.669Z,43.49
2024-04-09T07:37:22.290Z,42.90
2024-04-09T07:39:51.091Z,42.23
2024-04-09T07:42:19.140Z,41.15
2024-04-09T07:44:47.098Z,41.61
2024-04-09T07:47:15.766Z,39.94
2024-04-09T07:49:44.063Z,39.51
2024-04-09T07:52:12.096Z,39.90
2024-04-09T07:54:40.238Z,37.52
2024-04-09T07:57:11.403Z,36.31
2024-04-09T07:59:39.371Z,36.01
2024-04-09T08:02:07.367Z,35.18
2024-04-09T08:04:35.703Z,32.99
2024-04-09T08:07:04.507Z,33.87
2024-04-09T08:09:33.323Z,33.55
2024-04-09T08:12:01.902Z,32.87
2024-04-09T08:14:30.070Z,31.75
2024-04-09T08:16:58.085Z,31.19
2024-04-09T08:19:29.355Z,32.11
2024-04-09T08:21:57.590Z,31.50
2024-04-09T08:24:25.732Z,30.01
2024-04-09T08:26:54.378Z,29.68
2024-04-09T08:29:23.339Z,30.28
2024-04-09T08:31:51.738Z,28.48
2024-04-09T08:34:21.416Z,27.91
2024-04-09T08:36:50.898Z,27.30
2024-04-09T08:39:19.338Z,26.52
2024-04-09T08:41:47.507Z,26.10
2024-04-09T08:44:16.017Z,25.11
2024-04-09T08:46:44.245Z,25.10
2024-04-09T08:49:13.299Z,25.67
2024-04-09T08:51:42.789Z,25.34
2024-04-09T08:54:11.098Z,25.93
2024-04-09T08:56:39.208Z,25.45
2024-04-09T08:59:09.036Z,24.80
2024-04-09T09:01:37.133Z,23.95
2024-04-09T09:04:05.890Z,23.84
2024-04-09T09:06:47.045Z,24.05
2024-04-09T09:09:30.340Z,23.96
2024-04-09T09:12:03.429Z,24.36
2024-04-09T09:14:31.752Z,23.99
2024-04-09T09:17:08.023Z,23.27
2024-04-09T09:19:37.564Z,23.80
2024-04-09T09:22:06.505Z,23.18
2024-04-09T09:24:35.364Z,23.31
2024-04-09T09:27:09.531Z,23.49
2024-04-09T09:29:38.321Z,22.56
2024-04-09T09:32:07.467Z,22.16
2024-04-09T09:34:41.979Z,22.48
2024-04-09T09:37:11.527Z,23.00
2024-04-09T09:39:41.306Z,22.17
2024-04-09T09:42:13.522Z,21.91
2024-04-09T09:44:42.817Z,22.06
2024-04-09T09:47:11.669Z,21.74
2024-04-09T09:49:39.943Z,22.48
2024-04-09T09:52:08.003Z,21.66
2024-04-09T09:54:35.965Z,21.60
2024-04-09T09:57:11.952Z,21.50
2024-04-09T09:59:49.604Z,22.11
2024-04-09T10:02:20.220Z,22.47
2024-04-09T10:04:49.611Z,22.14
2024-04-09T10:07:19.446Z,22.41
2024-04-09T10:09:54.083Z,22.34
2024-04-09T10:12:36.510Z,21.99
2024-04-09T10:15:18.539Z,22.34
2024-04-09T10:17:52.711Z,22.43
2024-04-09T10:20:23.812Z,22.24
2024-04-09T10:22:53.220Z,22.39
2024-04-09T10:25:22.930Z,22.69
2024-04-09T10:28:06.188Z,22.37
2024-04-09T10:30:35.812Z,22.73
2024-04-09T10:33:05.948Z,22.58
2024-04-09T10:35:35.003Z,23.10
2024-04-09T10:38:06.184Z,22.85
2024-04-09T10:40:36.352Z,22.84
2024-04-09T10:43:09.356Z,23.06
2024-04-09T10:45:47.229Z,23.07
2024-04-09T10:48:25.343Z,22.49
2024-04-09T10:50:54.020Z,22.43
2024-04-09T10:53:22.846Z,22.80
2024-04-09T10:55:50.884Z,22.88
2024-04-09T10:58:18.919Z,22.78
2024-04-09T11:00:56.185Z,22.53
2024-04-09T11:03:25.323Z,22.46
2024-04-09T11:05:54.335Z,22.29
2024-04-09T11:08:31.107Z,22.22
2024-04-09T11:11:02.465Z,22.48
2024-04-09T11:13:32.643Z,22.80
2024-04-09T11:16:03.065Z,23.45
2024-04-09T11:18:32.107Z,22.64
2024-04-09T11:21:02.604Z,22.57
2024-04-09T11:23:35.353Z,22.41
2024-04-09T11:26:06.553Z,22.63
2024-04-09T11:28:34.667Z,22.38
2024-04-09T11:31:05.340Z,22.03
2024-04-09T11:33:33.565Z,21.61
2024-04-09T11:36:07.956Z,21.65
2024-04-09T11:38:42.545Z,20.88
2024-04-09T11:41:10.539Z,20.93
2024-04-09T11:43:38.600Z,21.09
2024-04-09T11:46:06.615Z,21.19
2024-04-09T11:48:34.971Z,20.95
2024-04-09T11:51:03.338Z,21.06
2024-04-09T11:53:31.442Z,20.78
2024-04-09T11:56:00.514Z,20.39
2024-04-09T11:58:28.632Z,20.08
2024-04-09T12:00:57.532Z,20.74
2024-04-09T12:03:25.972Z,20.90
2024-04-09T12:05:54.137Z,20.77
2024-04-09T12:08:23.142Z,21.19
2024-04-09T12:10:51.189Z,21.19
2024-04-09T12:13:19.248Z,20.98
2024-04-09T12:15:47.317Z,21.11
2024-04-09T12:18:15.465Z,20.57
2024-04-09T12:20:43.693Z,20.40
2024-04-09T12:23:12.090Z,19.97
2024-04-09T12:25:42.375Z,20.53
2024-04-09T12:28:10.356Z,20.21
2024-04-09T12:30:38.618Z,20.38
2024-04-09T12:33:07.311Z,20.66
2024-04-09T12:35:35.401Z,20.57
2024-04-09T12:38:03.559Z,20.60
2024-04-09T12:40:31.509Z,20.81
2024-04-09T12:42:59.483Z,21.08
2024-04-09T12:45:27.471Z,21.16
2024-04-09T12:47:55.724Z,21.33
2024-04-09T12:50:24.042Z,21.29
2024-04-09T12:52:52.290Z,21.15
2024-04-09T12:55:20.453Z,20.98
2024-04-09T12:57:48.560Z,20.60
2024-04-09T13:00:39.381Z,20.48
2024-04-09T13:03:06.094Z,20.97
2024-04-09T13:05:35.042Z,20.98
2024-04-09T13:08:04.581Z,20.67
2024-04-09T13:10:34.323Z,20.31
2024-04-09T13:13:02.464Z,20.00
2024-04-09T13:18:01.880Z,20.40
2024-04-09T13:20:30.374Z,20.29
2024-04-09T13:22:58.518Z,20.47
2024-04-09T13:25:26.522Z,20.87
2024-04-09T13:27:54.525Z,21.14
2024-04-09T13:30:22.629Z,20.71
2024-04-09T13:32:50.858Z,20.90
2024-04-09T13:35:19.129Z,21.32
2024-04-09T13:37:47.235Z,20.85
2024-04-09T13:40:15.263Z,20.99
2024-04-09T13:42:45.206Z,20.77
2024-04-09T13:45:14.313Z,21.19
2024-04-09T13:47:42.942Z,21.09
2024-04-09T13:50:12.386Z,21.18
2024-04-09T13:52:40.713Z,21.03
2024-04-09T13:55:09.760Z,21.08
2024-04-09T13:57:37.839Z,21.61
2024-04-09T14:00:09.845Z,21.65
2024-04-09T14:02:42.724Z,21.61
2024-04-09T14:05:11.980Z,21.86
2024-04-09T14:07:40.391Z,21.92
2024-04-09T14:10:08.537Z,22.07
2024-04-09T14:12:36.627Z,22.31
2024-04-09T14:15:08.404Z,21.94
2024-04-09T14:17:37.294Z,22.10
2024-04-09T14:20:15.989Z,22.27
2024-04-09T14:22:44.093Z,22.20
2024-04-09T14:25:12.795Z,21.97
2024-04-09T14:27:40.836Z,22.41
2024-04-09T14:30:09.130Z,22.66
2024-04-09T14:32:37.740Z,23.09
2024-04-09T14:35:10.784Z,23.25
2024-04-09T14:37:40.479Z,23.72
2024-04-09T14:40:08.876Z,23.67
2024-04-09T14:42:37.427Z,23.43
2024-04-09T14:45:05.951Z,23.22
2024-04-09T14:47:34.187Z,23.58
2024-04-09T14:50:03.365Z,23.18
2024-04-09T14:52:31.363Z,23.69
2024-04-09T14:54:59.350Z,23.54
2024-04-09T14:57:27.454Z,23.72
2024-04-09T14:59:55.439Z,24.16
2024-04-09T15:02:27.370Z,24.23
2024-04-09T15:04:58.660Z,24.59
2024-04-09T15:07:27.144Z,24.90
2024-04-09T15:09:55.334Z,25.37
2024-04-09T15:12:23.581Z,25.22
2024-04-09T15:14:51.752Z,24.72
2024-04-09T15:17:20.087Z,24.97
2024-04-09T15:19:48.314Z,24.49
2024-04-09T15:22:16.327Z,25.04
2024-04-09T15:24:44.310Z,25.24
2024-04-09T15:27:12.328Z,25.62
2024-04-09T15:29:41.756Z,25.95
2024-04-09T15:32:11.347Z,26.18
2024-04-09T15:34:39.901Z,26.42
2024-04-09T15:37:08.174Z,26.63
2024-04-09T15:40:01.817Z,27.33
2024-04-09T15:42:30.030Z,28.08
2024-04-09T15:44:58.037Z,28.33
2024-04-09T15:47:27.070Z,27.90
2024-04-09T15:49:55.303Z,28.57
2024-04-09T15:52:24.210Z,28.50
2024-04-09T15:54:52.308Z,28.42
2024-04-09T15:57:21.133Z,28.41
2024-04-09T15:59:52.479Z,28.65
2024-04-09T16:02:22.173Z,28.88
2024-04-09T16:04:51.111Z,29.19
2024-04-09T16:07:19.262Z,29.40
2024-04-09T16:09:47.608Z,29.60
2024-04-09T16:12:16.056Z,29.13
2024-04-09T16:14:48.992Z,28.77
2024-04-09T16:17:17.222Z,29.46
2024-04-09T16:19:47.156Z,30.19
2024-04-09T16:22:15.963Z,31.00
2024-04-09T16:24:44.048Z,30.75
2024-04-09T16:27:13.053Z,30.53
2024-04-09T16:29:41.204Z,31.29
2024-04-09T16:32:09.877Z,31.72
2024-04-09T16:34:38.165Z,31.64
2024-04-09T16:37:06.909Z,31.91
2024-04-09T16:39:35.372Z,32.12
2024-04-09T16:42:04.292Z,32.11
2024-04-09T16:44:33.860Z,32.48
2024-04-09T16:47:02.124Z,32.04
2024-04-09T16:49:31.011Z,32.73
2024-04-09T16:51:59.110Z,32.94
2024-04-09T16:54:27.318Z,33.23
2024-04-09T16:56:55.978Z,33.21
2024-04-09T16:59:24.566Z,33.24
2024-04-09T17:01:52.848Z,33.44
2024-04-09T17:04:22.261Z,33.68
2024-04-09T17:06:50.292Z,33.61
2024-04-09T17:09:18.550Z,33.69
2024-04-09T17:11:47.273Z,34.16
2024-04-09T17:14:15.928Z,34.26
2024-04-09T17:16:44.521Z,34.00
2024-04-09T17:19:12.825Z,33.82
2024-04-09T17:21:40.841Z,34.37
2024-04-09T17:24:10.459Z,34.56
2024-04-09T17:26:38.481Z,34.82
2024-04-09T17:29:06.943Z,35.17
2024-04-09T17:31:34.962Z,34.85
2024-04-09T17:34:03.588Z,35.32
2024-04-09T17:36:31.816Z,34.42
2024-04-09T17:38:59.932Z,35.53
2024-04-09T17:41:28.499Z,35.75
2024-04-09T17:43:57.265Z,35.11
2024-04-09T17:46:25.300Z,34.94
2024-04-09T17:48:55.695Z,35.07
2024-04-09T17:51:25.571Z,35.33
2024-04-09T17:53:53.716Z,35.25
2024-04-09T17:56:22.098Z,35.66
2024-04-09T17:58:50.193Z,35.15
2024-04-09T18:01:22.734Z,35.35
2024-04-09T18:03:55.871Z,35.83
2024-04-09T18:06:26.476Z,36.28
2024-04-09T18:08:55.227Z,36.34
2024-04-09T18:11:23.351Z,36.15
2024-04-09T18:13:51.507Z,36.10
2024-04-09T18:16:19.874Z,36.50
2024-04-09T18:18:47.933Z,36.25
2024-04-09T18:21:16.169Z,36.55
2024-04-09T18:23:48.605Z,35.95
2024-04-09T18:26:21.041Z,36.34
2024-04-09T18:28:49.862Z,36.24
2024-04-09T18:31:18.800Z,36.75
2024-04-09T18:33:47.402Z,36.69
2024-04-09T18:36:16.061Z,36.40
2024-04-09T18:38:47.480Z,36.13
2024-04-09T18:41:16.188Z,36.54
2024-04-09T18:43:44.712Z,36.43
2024-04-09T18:46:13.094Z,36.45
2024-04-09T18:48:42.263Z,36.62
2024-04-09T18:51:14.967Z,36.32
2024-04-09T18:53:43.065Z,36.20
2024-04-09T18:56:11.320Z,36.59
2024-04-09T18:58:39.439Z,36.73
2024-04-09T19:01:08.499Z,37.24
2024-04-09T19:03:36.892Z,37.48
2024-04-09T19:06:05.122Z,37.48
2024-04-09T19:08:33.507Z,37.44
2024-04-09T19:11:08.004Z,37.63
2024-04-09T19:13:40.608Z,37.62
2024-04-09T19:16:09.589Z,37.49
2024-04-09T19:18:37.838Z,37.91
2024-04-09T19:21:08.111Z,38.35
2024-04-09T19:23:36.277Z,38.44
2024-04-09T19:26:07.616Z,38.70
2024-04-09T19:28:36.067Z,39.16
2024-04-09T19:31:04.372Z,38.68
2024-04-09T19:33:33.240Z,38.73
2024-04-09T19:36:02.531Z,39.08
2024-04-09T19:38:30.864Z,38.90
2024-04-09T19:40:59.123Z,38.96
2024-04-09T19:43:37.591Z,39.16
2024-04-09T19:46:10.835Z,39.23
2024-04-09T19:48:39.360Z,38.66
2024-04-09T19:51:07.709Z,39.09
2024-04-09T19:53:46.632Z,39.16
2024-04-09T19:56:22.316Z,38.98
2024-04-09T19:58:50.667Z,38.94
2024-04-09T20:01:20.442Z,38.80
2024-04-09T20:03:48.973Z,39.11
2024-04-09T20:06:17.324Z,38.91
2024-04-09T20:08:45.749Z,39.02
2024-04-09T20:11:14.131Z,38.98
2024-04-09T20:13:43.475Z,38.95
2024-04-09T20:16:12.328Z,39.14
2024-04-09T20:18:40.767Z,38.96
2024-04-09T20:21:08.970Z,38.92
2024-04-09T20:23:37.367Z,39.18
2024-04-09T20:26:05.415Z,38.77
2024-04-09T20:28:33.438Z,38.89
2024-04-09T20:31:10.190Z,39.03
2024-04-09T20:33:39.044Z,38.78
2024-04-09T20:36:07.707Z,39.28
2024-04-09T20:38:35.897Z,39.02
2024-04-09T20:41:04.895Z,39.18
2024-04-09T20:43:32.970Z,39.96
2024-04-09T20:46:01.701Z,40.60
2024-04-09T20:48:30.107Z,40.69
2024-04-09T20:50:58.380Z,41.07
2024-04-09T20:53:27.199Z,41.37
2024-04-09T20:56:06.067Z,41.65
2024-04-09T20:58:34.963Z,41.45
2024-04-09T21:01:04.853Z,41.66
2024-04-09T21:03:33.498Z,41.95
2024-04-09T21:06:03.677Z,42.00
2024-04-09T21:08:31.771Z,41.72
2024-04-09T21:10:59.918Z,41.85
2024-04-09T21:13:28.258Z,42.10
2024-04-09T21:15:56.504Z,42.37
2024-04-09T21:18:27.383Z,42.43
2024-04-09T21:20:55.624Z,42.37
2024-04-09T21:23:23.876Z,42.96
2024-04-09T21:25:52.197Z,42.89
2024-04-09T21:28:20.187Z,43.19
2024-04-09T21:30:48.984Z,43.67
2024-04-09T21:33:17.218Z,43.58
2024-04-09T21:35:45.370Z,43.41
2024-04-09T21:38:13.637Z,43.48
2024-04-09T21:40:42.409Z,43.19
2024-04-09T21:43:10.798Z,43.81
2024-04-09T21:45:39.269Z,44.25
2024-04-09T21:48:07.996Z,44.49
2024-04-09T21:50:36.407Z,44.16
2024-04-09T21:53:04.640Z,45.00
2024-04-09T21:55:32.597Z,45.20
2024-04-09T21:58:00.561Z,45.36
2024-04-09T22:00:35.174Z,45.21
2024-04-09T22:03:03.478Z,45.42
2024-04-09T22:05:31.647Z,45.76
2024-04-09T22:07:59.800Z,45.99
2024-04-09T22:10:29.202Z,46.07
2024-04-09T22:13:00.963Z,46.63
2024-04-09T22:15:29.110Z,47.05
2024-04-09T22:17:57.167Z,47.09
2024-04-09T22:20:26.014Z,47.31
2024-04-09T22:22:54.290Z,48.06
2024-04-09T22:25:22.354Z,47.94
2024-04-09T22:27:50.366Z,48.35
2024-04-09T22:30:18.306Z,48.05
2024-04-09T22:32:54.063Z,48.57
2024-04-09T22:35:22.736Z,49.58
2024-04-09T22:37:56.460Z,49.71
2024-04-09T22:40:24.680Z,48.87
2024-04-09T22:42:52.625Z,48.82
2024-04-09T22:45:20.640Z,47.50
2024-04-09T22:47:48.967Z,46.88
2024-04-09T22:50:17.300Z,46.22
2024-04-09T22:52:45.876Z,45.80
2024-04-09T22:55:13.895Z,45.36
2024-04-09T22:57:41.961Z,45.67
2024-04-09T23:00:10.618Z,45.52
2024-04-09T23:02:39.989Z,45.75
2024-04-09T23:05:11.344Z,45.81
2024-04-09T23:07:39.443Z,45.92
2024-04-09T23:10:07.710Z,46.18
2024-04-09T23:12:36.781Z,46.05
2024-04-09T23:15:05.162Z,46.53
2024-04-09T23:17:33.380Z,46.01
2024-04-09T23:20:01.618Z,46.29
2024-04-09T23:22:30.856Z,46.26
2024-04-09T23:24:59.073Z,46.66
2024-04-09T23:27:27.138Z,46.74
2024-04-09T23:29:55.407Z,46.79
2024-04-09T23:32:23.582Z,46.98
2024-04-09T23:34:52.257Z,47.28
2024-04-09T23:37:20.345Z,47.36
2024-04-09T23:39:48.885Z,47.86
2024-04-09T23:42:16.852Z,48.14
2024-04-09T23:44:45.693Z,48.78
2024-04-09T23:47:13.742Z,48.98
2024-04-09T23:49:42.354Z,48.88
2024-04-09T23:52:10.351Z,49.04
2024-04-09T23:54:38.299Z,49.61
2024-04-09T23:57:06.254Z,49.55
2024-04-09T23:59:34.389Z,50.27
